sensor_id;sensor_type;location;lat;lon;timestamp;temperature;humidity
4566;DHT22;2295;51.050;14.608;2024-03-06T00:01:31;0.00;99.90
4566;DHT22;2295;51.050;14.608;2024-03-06T00:04:02;-0.10;99.90
4566;DHT22;2295;51.050;14.608;2024-03-06T00:06:33;-0.20;99.90
4566;DHT22;2295;51.050;14.608;2024-03-06T00:09:01;-0.20;99.90
4566;DHT22;2295;51.050;14.608;2024-03-06T00:11:30;-0.30;99.90
4566;DHT22;2295;51.050;14.608;2024-03-06T00:13:59;-0.20;99.90
4566;DHT22;2295;51.050;14.608;2024-03-06T00:16:28;-0.20;99.90
4566;DHT22;2295;51.050;14.608;2024-03-06T00:19:00;-0.10;99.90
4566;DHT22;2295;51.050;14.608;2024-03-06T00:21:39;-0.10;99.90
4566;DHT22;2295;51.050;14.608;2024-03-06T00:24:07;-0.10;99.90
4566;DHT22;2295;51.050;14.608;2024-03-06T00:26:39;0.00;99.90
4566;DHT22;2295;51.050;14.608;2024-03-06T00:29:09;0.00;99.90
4566;DHT22;2295;51.050;14.608;2024-03-06T00:31:37;0.00;99.90
4566;DHT22;2295;51.050;14.608;2024-03-06T00:34:13;0.00;99.90
4566;DHT22;2295;51.050;14.608;2024-03-06T00:36:43;-0.10;99.90
4566;DHT22;2295;51.050;14.608;2024-03-06T00:39:12;-0.20;99.90
4566;DHT22;2295;51.050;14.608;2024-03-06T00:41:41;-0.30;99.90
4566;DHT22;2295;51.050;14.608;2024-03-06T00:44:10;-0.20;99.90
4566;DHT22;2295;51.050;14.608;2024-03-06T00:46:40;-0.10;99.90
4566;DHT22;2295;51.050;14.608;2024-03-06T00:49:14;-0.20;99.90
4566;DHT22;2295;51.050;14.608;2024-03-06T00:51:47;-0.20;99.90
4566;DHT22;2295;51.050;14.608;2024-03-06T00:54:16;-0.20;99.90
4566;DHT22;2295;51.050;14.608;2024-03-06T00:56:45;-0.30;99.90
4566;DHT22;2295;51.050;14.608;2024-03-06T00:59:13;-0.30;99.90
4566;DHT22;2295;51.050;14.608;2024-03-06T01:01:53;-0.40;99.90
4566;DHT22;2295;51.050;14.608;2024-03-06T01:04:25;-0.50;99.90
4566;DHT22;2295;51.050;14.608;2024-03-06T01:06:55;-0.50;99.90
4566;DHT22;2295;51.050;14.608;2024-03-06T01:09:25;-0.50;99.90
4566;DHT22;2295;51.050;14.608;2024-03-06T01:11:54;-0.50;99.90
4566;DHT22;2295;51.050;14.608;2024-03-06T01:14:22;-0.60;99.90
4566;DHT22;2295;51.050;14.608;2024-03-06T01:16:51;-0.70;99.90
4566;DHT22;2295;51.050;14.608;2024-03-06T01:19:19;-0.80;99.90
4566;DHT22;2295;51.050;14.608;2024-03-06T01:21:47;-0.90;99.90
4566;DHT22;2295;51.050;14.608;2024-03-06T01:24:17;-1.00;99.90
4566;DHT22;2295;51.050;14.608;2024-03-06T01:26:46;-1.00;99.90
4566;DHT22;2295;51.050;14.608;2024-03-06T01:29:14;-1.10;99.90
4566;DHT22;2295;51.050;14.608;2024-03-06T01:31:42;-1.10;99.90
4566;DHT22;2295;51.050;14.608;2024-03-06T01:34:14;-1.20;99.90
4566;DHT22;2295;51.050;14.608;2024-03-06T01:36:42;-1.20;99.90
4566;DHT22;2295;51.050;14.608;2024-03-06T01:39:10;-1.20;99.90
4566;DHT22;2295;51.050;14.608;2024-03-06T01:41:46;-1.30;99.90
4566;DHT22;2295;51.050;14.608;2024-03-06T01:44:15;-1.40;99.90
4566;DHT22;2295;51.050;14.608;2024-03-06T01:46:43;-1.40;99.90
4566;DHT22;2295;51.050;14.608;2024-03-06T01:49:13;-1.50;99.90
4566;DHT22;2295;51.050;14.608;2024-03-06T01:51:59;-1.50;99.90
4566;DHT22;2295;51.050;14.608;2024-03-06T01:54:28;-1.40;99.90
4566;DHT22;2295;51.050;14.608;2024-03-06T01:56:59;-1.40;99.90
4566;DHT22;2295;51.050;14.608;2024-03-06T01:59:30;-1.30;99.90
4566;DHT22;2295;51.050;14.608;2024-03-06T02:02:03;-1.20;99.90
4566;DHT22;2295;51.050;14.608;2024-03-06T02:04:32;-1.10;99.90
4566;DHT22;2295;51.050;14.608;2024-03-06T02:07:01;-1.00;99.90
4566;DHT22;2295;51.050;14.608;2024-03-06T02:09:30;-0.90;99.90
4566;DHT22;2295;51.050;14.608;2024-03-06T02:12:00;-0.80;99.90
4566;DHT22;2295;51.050;14.608;2024-03-06T02:14:29;-0.80;99.90
4566;DHT22;2295;51.050;14.608;2024-03-06T02:16:57;-0.70;99.90
4566;DHT22;2295;51.050;14.608;2024-03-06T02:19:38;-0.60;99.90
4566;DHT22;2295;51.050;14.608;2024-03-06T02:22:09;-0.50;99.90
4566;DHT22;2295;51.050;14.608;2024-03-06T02:24:38;-0.40;99.90
4566;DHT22;2295;51.050;14.608;2024-03-06T02:27:07;-0.30;99.90
4566;DHT22;2295;51.050;14.608;2024-03-06T02:29:36;-0.30;99.90
4566;DHT22;2295;51.050;14.608;2024-03-06T02:32:05;-0.20;99.90
4566;DHT22;2295;51.050;14.608;2024-03-06T02:34:36;-0.10;99.90
4566;DHT22;2295;51.050;14.608;2024-03-06T02:37:08;-0.10;99.90
4566;DHT22;2295;51.050;14.608;2024-03-06T02:39:40;0.00;99.90
4566;DHT22;2295;51.050;14.608;2024-03-06T02:42:08;0.00;99.90
4566;DHT22;2295;51.050;14.608;2024-03-06T02:44:37;0.10;99.90
4566;DHT22;2295;51.050;14.608;2024-03-06T02:47:05;0.10;99.90
4566;DHT22;2295;51.050;14.608;2024-03-06T02:49:34;0.20;99.90
4566;DHT22;2295;51.050;14.608;2024-03-06T02:52:02;0.20;99.90
4566;DHT22;2295;51.050;14.608;2024-03-06T02:54:32;0.30;99.90
4566;DHT22;2295;51.050;14.608;2024-03-06T02:57:01;0.30;99.90
4566;DHT22;2295;51.050;14.608;2024-03-06T02:59:30;0.40;99.90
4566;DHT22;2295;51.050;14.608;2024-03-06T03:01:58;0.40;99.90
4566;DHT22;2295;51.050;14.608;2024-03-06T03:04:27;0.50;99.90
4566;DHT22;2295;51.050;14.608;2024-03-06T03:06:55;0.50;99.90
4566;DHT22;2295;51.050;14.608;2024-03-06T03:09:24;0.60;99.90
4566;DHT22;2295;51.050;14.608;2024-03-06T03:11:54;0.70;99.90
4566;DHT22;2295;51.050;14.608;2024-03-06T03:14:22;0.80;99.90
4566;DHT22;2295;51.050;14.608;2024-03-06T03:16:50;0.80;99.90
4566;DHT22;2295;51.050;14.608;2024-03-06T03:19:19;0.80;99.90
4566;DHT22;2295;51.050;14.608;2024-03-06T03:21:47;0.80;99.90
4566;DHT22;2295;51.050;14.608;2024-03-06T03:24:16;0.80;99.90
4566;DHT22;2295;51.050;14.608;2024-03-06T03:26:50;0.90;99.90
4566;DHT22;2295;51.050;14.608;2024-03-06T03:29:20;0.90;99.90
4566;DHT22;2295;51.050;14.608;2024-03-06T03:31:49;1.00;99.90
4566;DHT22;2295;51.050;14.608;2024-03-06T03:34:17;1.00;99.90
4566;DHT22;2295;51.050;14.608;2024-03-06T03:36:47;1.00;99.90
4566;DHT22;2295;51.050;14.608;2024-03-06T03:39:16;1.00;99.90
4566;DHT22;2295;51.050;14.608;2024-03-06T03:41:45;1.00;99.90
4566;DHT22;2295;51.050;14.608;2024-03-06T03:44:13;1.00;99.90
4566;DHT22;2295;51.050;14.608;2024-03-06T03:46:43;0.90;99.90
4566;DHT22;2295;51.050;14.608;2024-03-06T03:49:12;0.80;99.90
4566;DHT22;2295;51.050;14.608;2024-03-06T03:51:41;0.80;99.90
4566;DHT22;2295;51.050;14.608;2024-03-06T03:54:11;0.70;99.90
4566;DHT22;2295;51.050;14.608;2024-03-06T03:56:43;0.60;99.90
4566;DHT22;2295;51.050;14.608;2024-03-06T03:59:11;0.40;99.90
4566;DHT22;2295;51.050;14.608;2024-03-06T04:01:40;0.30;99.90
4566;DHT22;2295;51.050;14.608;2024-03-06T04:04:09;0.10;99.90
4566;DHT22;2295;51.050;14.608;2024-03-06T04:06:38;-0.10;99.90
4566;DHT22;2295;51.050;14.608;2024-03-06T04:09:07;0.00;99.90
4566;DHT22;2295;51.050;14.608;2024-03-06T04:11:36;0.00;99.90
4566;DHT22;2295;51.050;14.608;2024-03-06T04:14:08;-0.10;99.90
4566;DHT22;2295;51.050;14.608;2024-03-06T04:16:37;-0.30;99.90
4566;DHT22;2295;51.050;14.608;2024-03-06T04:19:05;-0.40;99.90
4566;DHT22;2295;51.050;14.608;2024-03-06T04:21:42;-0.40;99.90
4566;DHT22;2295;51.050;14.608;2024-03-06T04:24:10;-0.40;99.90
4566;DHT22;2295;51.050;14.608;2024-03-06T04:26:39;-0.40;99.90
4566;DHT22;2295;51.050;14.608;2024-03-06T04:29:07;-0.50;99.90
4566;DHT22;2295;51.050;14.608;2024-03-06T04:31:39;-0.60;99.90
4566;DHT22;2295;51.050;14.608;2024-03-06T04:34:08;-0.70;99.90
4566;DHT22;2295;51.050;14.608;2024-03-06T04:36:36;-0.80;99.90
4566;DHT22;2295;51.050;14.608;2024-03-06T04:39:06;-0.90;99.90
4566;DHT22;2295;51.050;14.608;2024-03-06T04:41:34;-0.90;99.90
4566;DHT22;2295;51.050;14.608;2024-03-06T04:44:03;-0.80;99.90
4566;DHT22;2295;51.050;14.608;2024-03-06T04:46:33;-0.90;99.90
4566;DHT22;2295;51.050;14.608;2024-03-06T04:49:05;-1.00;99.90
4566;DHT22;2295;51.050;14.608;2024-03-06T04:51:33;-1.20;99.90
4566;DHT22;2295;51.050;14.608;2024-03-06T04:54:02;-1.30;99.90
4566;DHT22;2295;51.050;14.608;2024-03-06T04:56:32;-1.40;99.90
4566;DHT22;2295;51.050;14.608;2024-03-06T04:59:01;-1.50;99.90
4566;DHT22;2295;51.050;14.608;2024-03-06T05:01:31;-1.50;99.90
4566;DHT22;2295;51.050;14.608;2024-03-06T05:03:59;-1.40;99.90
4566;DHT22;2295;51.050;14.608;2024-03-06T05:06:45;-1.30;99.90
4566;DHT22;2295;51.050;14.608;2024-03-06T05:09:34;-1.20;99.90
4566;DHT22;2295;51.050;14.608;2024-03-06T05:12:25;-1.10;99.90
4566;DHT22;2295;51.050;14.608;2024-03-06T05:15:12;-1.00;99.90
4566;DHT22;2295;51.050;14.608;2024-03-06T05:18:01;-0.90;99.90
4566;DHT22;2295;51.050;14.608;2024-03-06T05:20:47;-0.80;99.90
4566;DHT22;2295;51.050;14.608;2024-03-06T05:23:42;-0.70;99.90
4566;DHT22;2295;51.050;14.608;2024-03-06T05:26:29;-0.60;99.90
4566;DHT22;2295;51.050;14.608;2024-03-06T05:29:22;-0.50;99.90
4566;DHT22;2295;51.050;14.608;2024-03-06T05:32:08;-0.50;99.90
4566;DHT22;2295;51.050;14.608;2024-03-06T05:34:57;-0.30;99.90
4566;DHT22;2295;51.050;14.608;2024-03-06T05:37:44;-0.20;99.90
4566;DHT22;2295;51.050;14.608;2024-03-06T05:40:29;-0.20;99.90
4566;DHT22;2295;51.050;14.608;2024-03-06T05:43:28;-0.10;99.90
4566;DHT22;2295;51.050;14.608;2024-03-06T05:46:30;0.00;99.90
4566;DHT22;2295;51.050;14.608;2024-03-06T05:49:21;0.00;99.90
4566;DHT22;2295;51.050;14.608;2024-03-06T05:52:10;0.10;99.90
4566;DHT22;2295;51.050;14.608;2024-03-06T05:54:59;0.20;99.90
4566;DHT22;2295;51.050;14.608;2024-03-06T05:57:56;0.20;99.90
4566;DHT22;2295;51.050;14.608;2024-03-06T06:00:42;0.30;99.90
4566;DHT22;2295;51.050;14.608;2024-03-06T06:03:12;0.30;99.90
4566;DHT22;2295;51.050;14.608;2024-03-06T06:05:44;0.40;99.90
4566;DHT22;2295;51.050;14.608;2024-03-06T06:08:15;0.50;99.90
4566;DHT22;2295;51.050;14.608;2024-03-06T06:10:44;0.60;99.90
4566;DHT22;2295;51.050;14.608;2024-03-06T06:13:12;0.60;99.90
4566;DHT22;2295;51.050;14.608;2024-03-06T06:15:50;0.70;99.90
4566;DHT22;2295;51.050;14.608;2024-03-06T06:18:23;0.80;99.90
4566;DHT22;2295;51.050;14.608;2024-03-06T06:20:51;0.90;99.90
4566;DHT22;2295;51.050;14.608;2024-03-06T06:23:20;0.90;99.90
4566;DHT22;2295;51.050;14.608;2024-03-06T06:25:49;1.00;99.90
4566;DHT22;2295;51.050;14.608;2024-03-06T06:28:17;1.00;99.90
4566;DHT22;2295;51.050;14.608;2024-03-06T06:30:45;1.00;99.90
4566;DHT22;2295;51.050;14.608;2024-03-06T06:33:14;1.10;99.90
4566;DHT22;2295;51.050;14.608;2024-03-06T06:35:44;1.10;99.90
4566;DHT22;2295;51.050;14.608;2024-03-06T06:38:12;1.10;99.90
4566;DHT22;2295;51.050;14.608;2024-03-06T06:40:55;1.10;99.90
4566;DHT22;2295;51.050;14.608;2024-03-06T06:43:26;1.20;99.90
4566;DHT22;2295;51.050;14.608;2024-03-06T06:45:57;1.20;99.90
4566;DHT22;2295;51.050;14.608;2024-03-06T06:48:27;1.20;99.90
4566;DHT22;2295;51.050;14.608;2024-03-06T06:50:57;1.20;99.90
4566;DHT22;2295;51.050;14.608;2024-03-06T06:53:26;1.20;99.90
4566;DHT22;2295;51.050;14.608;2024-03-06T06:55:54;1.30;99.90
4566;DHT22;2295;51.050;14.608;2024-03-06T06:58:23;1.20;99.90
4566;DHT22;2295;51.050;14.608;2024-03-06T07:00:53;1.30;99.90
4566;DHT22;2295;51.050;14.608;2024-03-06T07:03:22;1.30;99.90
4566;DHT22;2295;51.050;14.608;2024-03-06T07:06:02;1.40;99.90
4566;DHT22;2295;51.050;14.608;2024-03-06T07:08:31;1.40;99.90
4566;DHT22;2295;51.050;14.608;2024-03-06T07:11:03;1.50;99.90
4566;DHT22;2295;51.050;14.608;2024-03-06T07:13:35;1.60;99.90
4566;DHT22;2295;51.050;14.608;2024-03-06T07:16:04;1.70;99.90
4566;DHT22;2295;51.050;14.608;2024-03-06T07:18:33;1.80;99.90
4566;DHT22;2295;51.050;14.608;2024-03-06T07:21:03;1.80;99.90
4566;DHT22;2295;51.050;14.608;2024-03-06T07:23:32;1.90;99.90
4566;DHT22;2295;51.050;14.608;2024-03-06T07:26:00;2.00;99.90
4566;DHT22;2295;51.050;14.608;2024-03-06T07:28:29;2.10;99.90
4566;DHT22;2295;51.050;14.608;2024-03-06T07:30:57;2.10;99.90
4566;DHT22;2295;51.050;14.608;2024-03-06T07:33:25;2.20;99.90
4566;DHT22;2295;51.050;14.608;2024-03-06T07:35:57;2.30;99.90
4566;DHT22;2295;51.050;14.608;2024-03-06T07:39:04;2.20;99.90
4566;DHT22;2295;51.050;14.608;2024-03-06T07:41:32;2.30;99.90
4566;DHT22;2295;51.050;14.608;2024-03-06T07:44:01;2.40;99.90
4566;DHT22;2295;51.050;14.608;2024-03-06T07:46:29;2.50;99.90
4566;DHT22;2295;51.050;14.608;2024-03-06T07:48:58;2.60;99.90
4566;DHT22;2295;51.050;14.608;2024-03-06T07:51:27;2.60;99.90
4566;DHT22;2295;51.050;14.608;2024-03-06T07:53:55;2.70;99.90
4566;DHT22;2295;51.050;14.608;2024-03-06T07:56:25;2.80;99.90
4566;DHT22;2295;51.050;14.608;2024-03-06T07:58:54;2.80;99.90
4566;DHT22;2295;51.050;14.608;2024-03-06T08:01:23;2.90;99.90
4566;DHT22;2295;51.050;14.608;2024-03-06T08:03:52;2.90;99.90
4566;DHT22;2295;51.050;14.608;2024-03-06T08:06:21;2.90;99.90
4566;DHT22;2295;51.050;14.608;2024-03-06T08:08:49;3.00;99.90
4566;DHT22;2295;51.050;14.608;2024-03-06T08:11:29;3.00;99.90
4566;DHT22;2295;51.050;14.608;2024-03-06T08:13:58;2.80;99.90
4566;DHT22;2295;51.050;14.608;2024-03-06T08:16:27;2.80;99.90
4566;DHT22;2295;51.050;14.608;2024-03-06T08:19:01;2.80;99.90
4566;DHT22;2295;51.050;14.608;2024-03-06T08:21:29;2.90;99.90
4566;DHT22;2295;51.050;14.608;2024-03-06T08:23:57;2.90;99.90
4566;DHT22;2295;51.050;14.608;2024-03-06T08:26:26;3.00;99.90
4566;DHT22;2295;51.050;14.608;2024-03-06T08:28:55;3.10;99.90
4566;DHT22;2295;51.050;14.608;2024-03-06T08:31:24;3.20;99.90
4566;DHT22;2295;51.050;14.608;2024-03-06T08:33:53;3.20;99.90
4566;DHT22;2295;51.050;14.608;2024-03-06T08:36:21;3.30;99.90
4566;DHT22;2295;51.050;14.608;2024-03-06T08:38:51;3.40;99.90
4566;DHT22;2295;51.050;14.608;2024-03-06T08:41:19;3.40;99.90
4566;DHT22;2295;51.050;14.608;2024-03-06T08:43:48;3.40;99.90
4566;DHT22;2295;51.050;14.608;2024-03-06T08:46:20;3.30;99.90
4566;DHT22;2295;51.050;14.608;2024-03-06T08:48:49;3.20;99.90
4566;DHT22;2295;51.050;14.608;2024-03-06T08:51:17;3.20;99.90
4566;DHT22;2295;51.050;14.608;2024-03-06T08:53:46;3.10;99.90
4566;DHT22;2295;51.050;14.608;2024-03-06T08:56:15;3.00;99.90
4566;DHT22;2295;51.050;14.608;2024-03-06T08:58:44;2.90;99.90
4566;DHT22;2295;51.050;14.608;2024-03-06T09:01:12;2.90;99.90
4566;DHT22;2295;51.050;14.608;2024-03-06T09:03:43;3.00;99.90
4566;DHT22;2295;51.050;14.608;2024-03-06T09:06:17;2.90;99.90
4566;DHT22;2295;51.050;14.608;2024-03-06T09:08:45;2.80;99.90
4566;DHT22;2295;51.050;14.608;2024-03-06T09:11:15;2.70;99.90
4566;DHT22;2295;51.050;14.608;2024-03-06T09:13:54;2.80;99.90
4566;DHT22;2295;51.050;14.608;2024-03-06T09:16:31;2.80;99.90
4566;DHT22;2295;51.050;14.608;2024-03-06T09:19:01;2.80;99.90
4566;DHT22;2295;51.050;14.608;2024-03-06T09:21:29;2.90;99.90
4566;DHT22;2295;51.050;14.608;2024-03-06T09:23:57;3.00;99.90
4566;DHT22;2295;51.050;14.608;2024-03-06T09:26:26;3.00;99.90
4566;DHT22;2295;51.050;14.608;2024-03-06T09:28:55;2.80;99.90
4566;DHT22;2295;51.050;14.608;2024-03-06T09:31:23;2.80;99.90
4566;DHT22;2295;51.050;14.608;2024-03-06T09:33:54;2.60;99.90
4566;DHT22;2295;51.050;14.608;2024-03-06T09:36:24;2.70;99.90
4566;DHT22;2295;51.050;14.608;2024-03-06T09:38:53;2.70;99.90
4566;DHT22;2295;51.050;14.608;2024-03-06T09:41:22;2.80;99.90
4566;DHT22;2295;51.050;14.608;2024-03-06T09:43:51;2.90;99.90
4566;DHT22;2295;51.050;14.608;2024-03-06T09:46:20;2.90;99.90
4566;DHT22;2295;51.050;14.608;2024-03-06T09:48:49;2.70;99.90
4566;DHT22;2295;51.050;14.608;2024-03-06T09:51:19;2.60;99.90
4566;DHT22;2295;51.050;14.608;2024-03-06T09:53:51;2.60;99.90
4566;DHT22;2295;51.050;14.608;2024-03-06T09:56:20;2.80;99.90
4566;DHT22;2295;51.050;14.608;2024-03-06T09:58:48;3.00;99.90
4566;DHT22;2295;51.050;14.608;2024-03-06T10:01:17;3.00;99.90
4566;DHT22;2295;51.050;14.608;2024-03-06T10:03:46;2.90;99.90
4566;DHT22;2295;51.050;14.608;2024-03-06T10:06:14;2.80;99.90
4566;DHT22;2295;51.050;14.608;2024-03-06T10:08:43;2.80;99.90
4566;DHT22;2295;51.050;14.608;2024-03-06T10:11:15;2.80;99.90
4566;DHT22;2295;51.050;14.608;2024-03-06T10:13:44;2.70;99.90
4566;DHT22;2295;51.050;14.608;2024-03-06T10:16:12;2.50;99.90
4566;DHT22;2295;51.050;14.608;2024-03-06T10:18:41;2.60;99.90
4566;DHT22;2295;51.050;14.608;2024-03-06T10:21:14;2.60;99.90
4566;DHT22;2295;51.050;14.608;2024-03-06T10:23:47;2.80;99.90
4566;DHT22;2295;51.050;14.608;2024-03-06T10:26:17;2.80;99.90
4566;DHT22;2295;51.050;14.608;2024-03-06T10:28:47;2.70;99.90
4566;DHT22;2295;51.050;14.608;2024-03-06T10:31:26;2.50;99.90
4566;DHT22;2295;51.050;14.608;2024-03-06T10:34:04;2.60;99.90
4566;DHT22;2295;51.050;14.608;2024-03-06T10:36:33;2.60;99.90
4566;DHT22;2295;51.050;14.608;2024-03-06T10:39:04;2.40;99.90
4566;DHT22;2295;51.050;14.608;2024-03-06T10:41:38;2.40;99.90
4566;DHT22;2295;51.050;14.608;2024-03-06T10:44:11;2.40;99.90
4566;DHT22;2295;51.050;14.608;2024-03-06T10:46:43;2.60;99.90
4566;DHT22;2295;51.050;14.608;2024-03-06T10:49:15;2.60;99.90
4566;DHT22;2295;51.050;14.608;2024-03-06T10:51:47;2.60;99.90
4566;DHT22;2295;51.050;14.608;2024-03-06T10:54:16;2.70;99.90
4566;DHT22;2295;51.050;14.608;2024-03-06T10:56:45;2.70;99.90
4566;DHT22;2295;51.050;14.608;2024-03-06T10:59:14;2.80;99.90
4566;DHT22;2295;51.050;14.608;2024-03-06T11:01:44;2.80;99.90
4566;DHT22;2295;51.050;14.608;2024-03-06T11:04:15;2.90;99.90
4566;DHT22;2295;51.050;14.608;2024-03-06T11:06:43;3.00;99.90
4566;DHT22;2295;51.050;14.608;2024-03-06T11:09:12;3.00;99.90
4566;DHT22;2295;51.050;14.608;2024-03-06T11:11:53;3.10;99.90
4566;DHT22;2295;51.050;14.608;2024-03-06T11:14:23;3.30;99.90
4566;DHT22;2295;51.050;14.608;2024-03-06T11:17:00;3.50;99.90
4566;DHT22;2295;51.050;14.608;2024-03-06T11:19:30;3.70;99.90
4566;DHT22;2295;51.050;14.608;2024-03-06T11:21:59;3.80;99.90
4566;DHT22;2295;51.050;14.608;2024-03-06T11:24:33;3.90;99.90
4566;DHT22;2295;51.050;14.608;2024-03-06T11:27:04;4.00;99.90
4566;DHT22;2295;51.050;14.608;2024-03-06T11:30:03;3.90;99.90
4566;DHT22;2295;51.050;14.608;2024-03-06T11:32:33;3.90;99.90
4566;DHT22;2295;51.050;14.608;2024-03-06T11:35:01;3.80;99.90
4566;DHT22;2295;51.050;14.608;2024-03-06T11:37:33;3.60;99.90
4566;DHT22;2295;51.050;14.608;2024-03-06T11:40:03;3.50;99.90
4566;DHT22;2295;51.050;14.608;2024-03-06T11:42:36;3.40;99.90
4566;DHT22;2295;51.050;14.608;2024-03-06T11:45:16;3.50;99.90
4566;DHT22;2295;51.050;14.608;2024-03-06T11:48:10;3.60;99.90
4566;DHT22;2295;51.050;14.608;2024-03-06T11:50:44;3.40;99.90
4566;DHT22;2295;51.050;14.608;2024-03-06T11:53:13;3.50;99.90
4566;DHT22;2295;51.050;14.608;2024-03-06T11:55:42;3.60;99.90
4566;DHT22;2295;51.050;14.608;2024-03-06T11:58:12;3.60;99.90
4566;DHT22;2295;51.050;14.608;2024-03-06T12:00:40;3.50;99.90
4566;DHT22;2295;51.050;14.608;2024-03-06T12:03:12;3.30;99.90
4566;DHT22;2295;51.050;14.608;2024-03-06T12:05:41;3.20;99.90
4566;DHT22;2295;51.050;14.608;2024-03-06T12:08:10;3.20;99.90
4566;DHT22;2295;51.050;14.608;2024-03-06T12:10:39;3.30;99.90
4566;DHT22;2295;51.050;14.608;2024-03-06T12:13:08;3.40;99.90
4566;DHT22;2295;51.050;14.608;2024-03-06T12:15:37;3.50;99.90
4566;DHT22;2295;51.050;14.608;2024-03-06T12:18:09;3.70;99.90
4566;DHT22;2295;51.050;14.608;2024-03-06T12:20:41;3.80;99.90
4566;DHT22;2295;51.050;14.608;2024-03-06T12:23:20;3.70;99.90
4566;DHT22;2295;51.050;14.608;2024-03-06T12:25:50;3.60;99.90
4566;DHT22;2295;51.050;14.608;2024-03-06T12:28:31;3.50;99.90
4566;DHT22;2295;51.050;14.608;2024-03-06T12:31:03;3.20;99.90
4566;DHT22;2295;51.050;14.608;2024-03-06T12:33:32;3.20;99.90
4566;DHT22;2295;51.050;14.608;2024-03-06T12:36:03;3.30;99.90
4566;DHT22;2295;51.050;14.608;2024-03-06T12:38:33;3.40;99.90
4566;DHT22;2295;51.050;14.608;2024-03-06T12:41:02;3.60;99.90
4566;DHT22;2295;51.050;14.608;2024-03-06T12:43:42;3.60;99.90
4566;DHT22;2295;51.050;14.608;2024-03-06T12:46:25;3.70;99.90
4566;DHT22;2295;51.050;14.608;2024-03-06T12:48:54;3.70;99.90
4566;DHT22;2295;51.050;14.608;2024-03-06T12:51:22;3.70;99.90
4566;DHT22;2295;51.050;14.608;2024-03-06T12:53:51;3.90;99.90
4566;DHT22;2295;51.050;14.608;2024-03-06T12:56:19;4.20;99.90
4566;DHT22;2295;51.050;14.608;2024-03-06T12:58:48;4.30;99.90
4566;DHT22;2295;51.050;14.608;2024-03-06T13:01:27;4.30;99.90
4566;DHT22;2295;51.050;14.608;2024-03-06T13:03:55;4.50;99.90
4566;DHT22;2295;51.050;14.608;2024-03-06T13:06:32;4.50;99.90
4566;DHT22;2295;51.050;14.608;2024-03-06T13:09:01;4.60;99.90
4566;DHT22;2295;51.050;14.608;2024-03-06T13:11:29;4.70;99.90
4566;DHT22;2295;51.050;14.608;2024-03-06T13:13:59;4.70;99.90
4566;DHT22;2295;51.050;14.608;2024-03-06T13:16:29;4.60;99.90
4566;DHT22;2295;51.050;14.608;2024-03-06T13:18:58;4.50;99.90
4566;DHT22;2295;51.050;14.608;2024-03-06T13:21:30;4.40;99.90
4566;DHT22;2295;51.050;14.608;2024-03-06T13:23:58;4.30;99.90
4566;DHT22;2295;51.050;14.608;2024-03-06T13:26:27;4.60;99.90
4566;DHT22;2295;51.050;14.608;2024-03-06T13:28:55;4.70;99.90
4566;DHT22;2295;51.050;14.608;2024-03-06T13:31:24;4.50;99.90
4566;DHT22;2295;51.050;14.608;2024-03-06T13:33:53;4.40;99.90
4566;DHT22;2295;51.050;14.608;2024-03-06T13:36:24;4.40;99.90
4566;DHT22;2295;51.050;14.608;2024-03-06T13:38:55;4.50;99.90
4566;DHT22;2295;51.050;14.608;2024-03-06T13:41:24;4.90;99.90
4566;DHT22;2295;51.050;14.608;2024-03-06T13:43:55;5.20;99.90
4566;DHT22;2295;51.050;14.608;2024-03-06T13:46:24;5.20;99.90
4566;DHT22;2295;51.050;14.608;2024-03-06T13:48:53;5.20;99.90
4566;DHT22;2295;51.050;14.608;2024-03-06T13:51:22;5.30;99.90
4566;DHT22;2295;51.050;14.608;2024-03-06T13:53:50;5.20;99.90
4566;DHT22;2295;51.050;14.608;2024-03-06T13:56:19;5.10;99.90
4566;DHT22;2295;51.050;14.608;2024-03-06T13:58:47;5.20;99.90
4566;DHT22;2295;51.050;14.608;2024-03-06T14:01:15;5.30;99.90
4566;DHT22;2295;51.050;14.608;2024-03-06T14:03:43;5.60;99.90
4566;DHT22;2295;51.050;14.608;2024-03-06T14:06:13;6.20;99.90
4566;DHT22;2295;51.050;14.608;2024-03-06T14:08:43;6.70;99.90
4566;DHT22;2295;51.050;14.608;2024-03-06T14:11:11;6.90;99.90
4566;DHT22;2295;51.050;14.608;2024-03-06T14:13:40;6.20;99.90
4566;DHT22;2295;51.050;14.608;2024-03-06T14:16:08;5.60;99.90
4566;DHT22;2295;51.050;14.608;2024-03-06T14:18:37;5.30;99.90
4566;DHT22;2295;51.050;14.608;2024-03-06T14:21:05;5.20;99.90
4566;DHT22;2295;51.050;14.608;2024-03-06T14:23:35;5.20;99.90
4566;DHT22;2295;51.050;14.608;2024-03-06T14:26:03;5.00;99.90
4566;DHT22;2295;51.050;14.608;2024-03-06T14:28:32;4.90;99.90
4566;DHT22;2295;51.050;14.608;2024-03-06T14:31:00;4.70;99.90
4566;DHT22;2295;51.050;14.608;2024-03-06T14:33:29;4.50;99.90
4566;DHT22;2295;51.050;14.608;2024-03-06T14:35:57;4.70;99.90
4566;DHT22;2295;51.050;14.608;2024-03-06T14:38:25;5.20;99.90
4566;DHT22;2295;51.050;14.608;2024-03-06T14:40:55;5.70;99.90
4566;DHT22;2295;51.050;14.608;2024-03-06T14:43:26;5.90;99.90
4566;DHT22;2295;51.050;14.608;2024-03-06T14:45:55;5.80;99.90
4566;DHT22;2295;51.050;14.608;2024-03-06T14:48:23;5.60;99.90
4566;DHT22;2295;51.050;14.608;2024-03-06T14:50:54;5.30;99.90
4566;DHT22;2295;51.050;14.608;2024-03-06T14:53:23;5.00;99.90
4566;DHT22;2295;51.050;14.608;2024-03-06T14:55:51;4.70;99.90
4566;DHT22;2295;51.050;14.608;2024-03-06T14:58:21;4.70;99.90
4566;DHT22;2295;51.050;14.608;2024-03-06T15:00:50;4.70;99.90
4566;DHT22;2295;51.050;14.608;2024-03-06T15:03:19;4.80;99.90
4566;DHT22;2295;51.050;14.608;2024-03-06T15:05:47;5.00;99.90
4566;DHT22;2295;51.050;14.608;2024-03-06T15:08:19;5.10;99.90
4566;DHT22;2295;51.050;14.608;2024-03-06T15:10:48;5.20;99.90
4566;DHT22;2295;51.050;14.608;2024-03-06T15:13:18;5.00;99.90
4566;DHT22;2295;51.050;14.608;2024-03-06T15:15:48;4.80;99.90
4566;DHT22;2295;51.050;14.608;2024-03-06T15:18:20;4.60;99.90
4566;DHT22;2295;51.050;14.608;2024-03-06T15:20:51;4.40;99.90
4566;DHT22;2295;51.050;14.608;2024-03-06T15:23:20;4.30;99.90
4566;DHT22;2295;51.050;14.608;2024-03-06T15:25:48;4.40;99.90
4566;DHT22;2295;51.050;14.608;2024-03-06T15:28:16;4.60;99.90
4566;DHT22;2295;51.050;14.608;2024-03-06T15:30:45;4.70;99.90
4566;DHT22;2295;51.050;14.608;2024-03-06T15:33:14;4.70;99.90
4566;DHT22;2295;51.050;14.608;2024-03-06T15:35:43;4.70;99.90
4566;DHT22;2295;51.050;14.608;2024-03-06T15:38:12;4.70;99.90
4566;DHT22;2295;51.050;14.608;2024-03-06T15:40:41;4.60;99.90
4566;DHT22;2295;51.050;14.608;2024-03-06T15:43:09;4.40;99.90
4566;DHT22;2295;51.050;14.608;2024-03-06T15:45:37;4.20;99.90
4566;DHT22;2295;51.050;14.608;2024-03-06T15:48:06;4.00;99.90
4566;DHT22;2295;51.050;14.608;2024-03-06T15:50:38;4.00;99.90
4566;DHT22;2295;51.050;14.608;2024-03-06T15:53:06;3.90;99.90
4566;DHT22;2295;51.050;14.608;2024-03-06T15:55:36;3.80;99.90
4566;DHT22;2295;51.050;14.608;2024-03-06T15:58:04;3.80;99.90
4566;DHT22;2295;51.050;14.608;2024-03-06T16:00:33;3.70;99.90
4566;DHT22;2295;51.050;14.608;2024-03-06T16:03:01;3.70;99.90
4566;DHT22;2295;51.050;14.608;2024-03-06T16:05:30;3.70;99.90
4566;DHT22;2295;51.050;14.608;2024-03-06T16:08:01;3.70;99.90
4566;DHT22;2295;51.050;14.608;2024-03-06T16:10:32;3.60;99.90
4566;DHT22;2295;51.050;14.608;2024-03-06T16:13:00;3.60;99.90
4566;DHT22;2295;51.050;14.608;2024-03-06T16:15:29;3.50;99.90
4566;DHT22;2295;51.050;14.608;2024-03-06T16:17:57;3.40;99.90
4566;DHT22;2295;51.050;14.608;2024-03-06T16:20:25;3.30;99.90
4566;DHT22;2295;51.050;14.608;2024-03-06T16:22:54;3.20;99.90